createdAt,value
2023-04-15T00:01:42.976Z,9.90
2023-04-15T00:07:08.699Z,10.63
2023-04-15T00:12:33.125Z,9.23
2023-04-15T00:17:56.948Z,11.45
2023-04-15T00:23:22.909Z,11.02
2023-04-15T00:28:46.611Z,10.15
2023-04-15T00:34:10.907Z,7.45
2023-04-15T00:39:36.300Z,4.97
2023-04-15T00:45:00.156Z,6.05
2023-04-15T00:50:24.134Z,7.95
2023-04-15T00:55:49.310Z,5.95
2023-04-15T01:01:13.094Z,7.28
2023-04-15T01:06:36.999Z,6.38
2023-04-15T01:12:02.653Z,6.80
2023-04-15T01:17:27.139Z,5.93
2023-04-15T01:22:51.372Z,6.68
2023-04-15T01:28:16.605Z,5.35
2023-04-15T01:33:41.095Z,6.15
2023-04-15T01:39:05.710Z,5.50
2023-04-15T01:44:30.832Z,6.07
2023-04-15T01:49:54.655Z,5.28
2023-04-15T01:55:19.203Z,9.50
2023-04-15T02:00:44.314Z,6.35
2023-04-15T02:06:08.025Z,7.93
2023-04-15T02:11:31.916Z,6.93
2023-04-15T02:16:57.189Z,7.97
2023-04-15T02:22:20.955Z,10.43
2023-04-15T02:27:45.036Z,7.95
2023-04-15T02:33:10.168Z,5.78
2023-04-15T02:38:33.856Z,8.40
2023-04-15T02:43:58.391Z,7.53
2023-04-15T02:49:24.975Z,8.15
2023-04-15T02:54:48.758Z,6.32
2023-04-15T03:00:14.193Z,9.75
2023-04-15T03:05:41.710Z,7.85
2023-04-15T03:11:06.348Z,9.50
2023-04-15T03:16:30.799Z,9.18
2023-04-15T03:21:57.157Z,7.57
2023-04-15T03:27:21.170Z,10.60
2023-04-15T03:32:45.560Z,9.05
2023-04-15T03:38:11.517Z,7.68
2023-04-15T03:43:36.477Z,6.93
2023-04-15T03:49:00.760Z,8.02
2023-04-15T03:54:26.042Z,7.38
2023-04-15T03:59:49.804Z,7.05
2023-04-15T04:05:13.533Z,8.38
2023-04-15T04:10:38.623Z,8.02
2023-04-15T04:16:02.771Z,8.73
2023-04-15T04:21:26.798Z,9.60
2023-04-15T04:26:51.888Z,7.22
2023-04-15T04:32:15.640Z,9.35
2023-04-15T04:37:39.545Z,10.88
2023-04-15T04:43:04.742Z,14.10
2023-04-15T04:48:28.563Z,9.25
2023-04-15T04:53:52.352Z,9.20
2023-04-15T04:59:19.013Z,6.30
2023-04-15T05:04:43.286Z,7.13
2023-04-15T05:10:08.826Z,8.20
2023-04-15T05:15:35.110Z,9.38
2023-04-15T05:20:59.060Z,5.97
2023-04-15T05:26:22.854Z,7.97
2023-04-15T05:31:48.072Z,8.50
2023-04-15T05:37:11.905Z,11.77
2023-04-15T05:42:36.491Z,8.52
2023-04-15T05:48:01.691Z,9.60
2023-04-15T05:53:25.547Z,6.70
2023-04-15T05:58:49.678Z,6.10
2023-04-15T06:04:15.719Z,8.85
2023-04-15T06:09:39.628Z,6.65
2023-04-15T06:15:03.993Z,6.13
2023-04-15T06:20:29.507Z,11.57
2023-04-15T06:25:53.714Z,4.03
2023-04-15T06:31:17.491Z,4.28
2023-04-15T06:36:42.678Z,4.32
2023-04-15T06:42:06.836Z,3.92
2023-04-15T06:47:30.675Z,3.80
2023-04-15T06:52:57.561Z,4.35
2023-04-15T06:58:21.289Z,8.70
2023-04-15T07:03:45.144Z,8.60
2023-04-15T07:09:10.691Z,5.40
2023-04-15T07:14:34.533Z,6.25
2023-04-15T07:19:58.299Z,5.70
2023-04-15T07:25:25.082Z,5.47
2023-04-15T07:30:50.220Z,6.32
2023-04-15T07:36:15.474Z,6.45
2023-04-15T07:41:40.876Z,4.93
2023-04-15T07:47:07.683Z,5.95
2023-04-15T07:52:32.413Z,6.13
2023-04-15T07:57:57.752Z,7.57
2023-04-15T08:03:22.722Z,6.63
2023-04-15T08:08:47.072Z,11.32
2023-04-15T08:14:12.568Z,8.20
2023-04-15T08:19:43.038Z,4.60
2023-04-15T08:25:07.480Z,4.40
2023-04-15T08:30:32.763Z,4.63
2023-04-15T08:35:56.767Z,2.10
2023-04-15T08:41:24.757Z,1.80
2023-04-15T08:46:50.010Z,2.38
2023-04-15T08:52:14.360Z,4.53
2023-04-15T08:57:39.889Z,1.83
2023-04-15T09:03:06.790Z,2.35
2023-04-15T09:08:30.627Z,4.18
2023-04-15T09:13:54.412Z,3.78
2023-04-15T09:19:25.225Z,4.80
2023-04-15T09:24:49.065Z,2.83
2023-04-15T09:30:13.271Z,2.35
2023-04-15T09:35:38.636Z,3.53
2023-04-15T09:41:02.647Z,1.77
2023-04-15T09:46:44.417Z,0.90
2023-04-15T09:52:10.418Z,1.52
2023-04-15T09:57:36.439Z,1.77
2023-04-15T10:03:00.475Z,2.40
2023-04-15T10:08:27.098Z,1.48
2023-04-15T10:13:51.453Z,6.35
2023-04-15T10:19:17.392Z,1.17
2023-04-15T10:24:43.313Z,1.30
2023-04-15T10:30:09.161Z,1.00
2023-04-15T10:35:34.123Z,1.17
2023-04-15T10:41:14.114Z,1.20
2023-04-15T10:46:40.134Z,1.15
2023-04-15T10:52:04.336Z,1.50
2023-04-15T10:57:36.437Z,2.60
2023-04-15T11:03:06.759Z,2.63
2023-04-15T11:08:57.432Z,0.93
2023-04-15T11:14:22.943Z,1.45
2023-04-15T11:19:46.999Z,1.10
2023-04-15T11:25:10.781Z,1.60
2023-04-15T11:30:37.988Z,1.75
2023-04-15T11:36:03.632Z,1.00
2023-04-15T11:41:27.606Z,1.42
2023-04-15T11:46:52.796Z,1.10
2023-04-15T11:52:16.655Z,1.40
2023-04-15T11:57:40.324Z,2.00
2023-04-15T12:03:25.165Z,0.90
2023-04-15T12:09:15.712Z,0.93
2023-04-15T12:14:42.375Z,4.18
2023-04-15T12:20:08.674Z,2.17
2023-04-15T12:25:36.493Z,2.42
2023-04-15T12:31:00.345Z,1.15
2023-04-15T12:36:26.005Z,1.67
2023-04-15T12:41:49.737Z,1.95
2023-04-15T12:47:14.039Z,0.90
2023-04-15T12:52:39.248Z,1.10
2023-04-15T12:58:02.936Z,1.08
2023-04-15T13:03:26.808Z,1.30
2023-04-15T13:08:58.169Z,1.35
2023-04-15T13:14:22.720Z,1.60
2023-04-15T13:19:46.436Z,2.70
2023-04-15T13:25:11.829Z,3.63
2023-04-15T13:30:35.600Z,1.63
2023-04-15T13:35:59.364Z,1.60
2023-04-15T13:41:24.588Z,1.58
2023-04-15T13:46:48.367Z,1.42
2023-04-15T13:52:12.588Z,1.27
2023-04-15T13:57:37.846Z,1.15
2023-04-15T14:03:01.670Z,2.25
2023-04-15T14:08:26.479Z,2.92
2023-04-15T14:13:51.684Z,1.10
2023-04-15T14:19:15.816Z,1.27
2023-04-15T14:24:39.554Z,0.93
2023-04-15T14:30:05.317Z,1.85
2023-04-15T14:35:29.755Z,1.17
2023-04-15T14:40:53.464Z,1.70
2023-04-15T14:46:18.640Z,1.27
2023-04-15T14:51:42.724Z,1.30
2023-04-15T14:57:06.729Z,4.22
2023-04-15T15:02:39.136Z,4.93
2023-04-15T15:08:04.160Z,2.08
2023-04-15T15:13:27.868Z,5.65
2023-04-15T15:18:52.988Z,2.70
2023-04-15T15:24:16.687Z,2.15
2023-04-15T15:29:40.480Z,3.22
2023-04-15T15:35:06.180Z,2.65
2023-04-15T15:40:29.859Z,3.55
2023-04-15T15:45:55.592Z,5.65
2023-04-15T15:51:21.812Z,6.03
2023-04-15T15:56:45.585Z,3.15
2023-04-15T16:02:11.204Z,3.72
2023-04-15T16:07:36.400Z,5.85
2023-04-15T16:13:00.260Z,8.00
2023-04-15T16:18:24.046Z,8.88
2023-04-15T16:23:49.187Z,7.10
2023-04-15T16:29:12.905Z,8.23
2023-04-15T16:34:39.071Z,7.15
2023-04-15T16:40:04.649Z,6.93
2023-04-15T16:45:28.414Z,6.88
2023-04-15T16:50:52.213Z,4.70
2023-04-15T16:56:17.353Z,3.15
2023-04-15T17:01:41.171Z,6.78
2023-04-15T17:07:06.220Z,7.65
2023-04-15T17:12:31.872Z,6.85
2023-04-15T17:17:55.868Z,3.05
2023-04-15T17:23:19.862Z,3.00
2023-04-15T17:28:45.005Z,3.00
2023-04-15T17:34:10.186Z,4.53
2023-04-15T17:39:35.691Z,3.10
2023-04-15T17:45:01.014Z,2.60
2023-04-15T17:50:24.780Z,3.22
2023-04-15T17:55:50.343Z,4.88
2023-04-15T18:01:15.762Z,18.45
2023-04-15T18:06:39.670Z,17.00
2023-04-15T18:12:04.511Z,16.10
2023-04-15T18:17:30.643Z,13.30
2023-04-15T18:22:54.526Z,15.30
2023-04-15T18:28:18.447Z,12.18
2023-04-15T18:33:43.731Z,10.73
2023-04-15T18:39:07.826Z,13.57
2023-04-15T18:44:32.193Z,7.97
2023-04-15T18:49:58.423Z,12.82
2023-04-15T18:55:22.342Z,13.85
2023-04-15T19:00:46.183Z,17.73
2023-04-15T19:06:11.536Z,14.90
2023-04-15T19:11:35.430Z,15.32
2023-04-15T19:16:59.328Z,16.23
2023-04-15T19:22:24.667Z,18.15
2023-04-15T19:27:48.407Z,17.20
2023-04-15T19:33:12.184Z,16.38
2023-04-15T19:38:37.487Z,16.73
2023-04-15T19:44:03.054Z,20.45
2023-04-15T19:49:27.135Z,21.50
2023-04-15T19:54:52.260Z,21.33
2023-04-15T20:00:16.814Z,19.00
2023-04-15T20:05:40.542Z,17.23
2023-04-15T20:11:05.845Z,16.80
2023-04-15T20:16:30.402Z,16.52
2023-04-15T20:21:54.561Z,15.82
2023-04-15T20:27:21.400Z,13.88
2023-04-15T20:32:45.242Z,9.95
2023-04-15T20:38:09.041Z,11.05
2023-04-15T20:43:34.250Z,10.15
2023-04-15T20:48:58.051Z,9.48
2023-04-15T20:54:22.105Z,7.63
2023-04-15T20:59:47.418Z,9.38
2023-04-15T21:05:11.384Z,6.60
2023-04-15T21:10:35.392Z,8.88
2023-04-15T21:16:00.780Z,10.98
2023-04-15T21:21:24.553Z,48.33
2023-04-15T21:26:48.290Z,25.35
2023-04-15T21:32:13.548Z,23.45
2023-04-15T21:37:38.076Z,16.80
2023-04-15T21:43:01.890Z,13.20
2023-04-15T21:48:27.098Z,19.15
2023-04-15T21:53:52.563Z,16.00
2023-04-15T21:59:16.386Z,15.00
2023-04-15T22:04:41.464Z,15.73
2023-04-15T22:10:05.996Z,16.92
2023-04-15T22:15:29.839Z,13.40
2023-04-15T22:20:54.966Z,15.70
2023-04-15T22:26:18.726Z,10.13
2023-04-15T22:31:42.551Z,13.60
2023-04-15T22:37:07.901Z,12.55
2023-04-15T22:42:31.676Z,15.75
2023-04-15T22:47:55.533Z,11.20
2023-04-15T22:53:20.900Z,13.25
2023-04-15T22:58:44.591Z,8.02
2023-04-15T23:04:09.521Z,11.18
2023-04-15T23:09:36.060Z,17.27
2023-04-15T23:14:59.854Z,13.63
2023-04-15T23:20:23.638Z,12.30
2023-04-15T23:25:49.303Z,12.68
2023-04-15T23:31:13.068Z,12.90
2023-04-15T23:36:36.963Z,11.95
2023-04-15T23:42:02.211Z,13.48
2023-04-15T23:47:26.092Z,11.63
2023-04-15T23:52:49.965Z,14.43
2023-04-15T23:58:15.107Z,13.27
